To NAV CANADA Home Page Login to a new session Search on AWWS site Disclaimer Vers la page française équivalente Tips FAQ What's new on the site To the Forecasts and Observations / NOTAM section To "File a Flight Plan" website Publications and other links Update of the User's profile FIC Telephone Numbers My Weather Data Folder Route Weather Data Regional Weather Data Local Weather Data To the Forecasts and Observations / NOTAM section
Request Generated 02/25/2018 at 11:42:51 UTC . Weather information available at that time is displayed.

METAR/TAF

If you find any discrepancies between the coded METAR/TAF and the plain language METAR/TAF please use the coded METAR/TAF. LWIS bulletins are not decoded in plain language.

CALGARY/SPRINGBANK/AB    (show WxCam)

METAR CYBW 251100Z AUTO 26011KT 9SM OVC200 M07/M14 A2938 RMK SLP006=
METAR
LOCATION
CYBW - CALGARY/SPRINGBANK/AB
DATE - TIME
25 FEBRUARY 2018 - 1100 UTC
WIND
260 TRUE @ 11  KNOTS
VISIBILITY
9 STAT.  MILES
RUNWAY VISUAL RANGE
WEATHER
CLOUDINESS
OVERCAST 20000  FT
TEMP / DEWPOINT
-7 C / -14 C
ALTIMETER
29.38 IN HG
RECENT WEATHER
WIND SHEAR

METAR CYBW 251000Z AUTO VRB14G19KT 9SM FEW210 BKN230 OVC250 M06/M16 A2941 RMK SLP014=
METAR
LOCATION
CYBW - CALGARY/SPRINGBANK/AB
DATE - TIME
25 FEBRUARY 2018 - 1000 UTC
WIND
VRB @ 14  KNOTS
GUSTS
19 KNOTS
VISIBILITY
9 STAT.  MILES
RUNWAY VISUAL RANGE
WEATHER
CLOUDINESS
FEW CLOUDS (1/8 - 2/8) 21000  FT
BROKEN CLOUDS (5/8 - 7/8) 23000  FT
OVERCAST 25000  FT
TEMP / DEWPOINT
-6 C / -16 C
ALTIMETER
29.41 IN HG
RECENT WEATHER
WIND SHEAR

METAR CYBW 250900Z AUTO 23006KT 9SM SCT120 BKN250 M07/M17 A2943 RMK SLP024=
METAR
LOCATION
CYBW - CALGARY/SPRINGBANK/AB
DATE - TIME
25 FEBRUARY 2018 - 0900 UTC
WIND
230 TRUE @ 6  KNOTS
VISIBILITY
9 STAT.  MILES
RUNWAY VISUAL RANGE
WEATHER
CLOUDINESS
SCATTERED CLOUDS (3/8 - 4/8) 12000  FT
BROKEN CLOUDS (5/8 - 7/8) 25000  FT
TEMP / DEWPOINT
-7 C / -17 C
ALTIMETER
29.43 IN HG
RECENT WEATHER
WIND SHEAR

*** REMARK        : Forecast period has ended; this was the last TAF issued
TAF CYBW 242338Z 2500/2505 27012G22KT P6SM FEW150 RMK FCST BASED ON AUTO OBS. NXT FCST WILL BE ISSUED AT 251245Z=
TAF
LOCATION

CYBW - CALGARY/SPRINGBANK/AB
VALIDITY [UTC]
24 FEB - 2338 to
25 FEB - 0500
 
TIMES
[UTC]
WIND
[DEGREES TRUE]
VISIBILITY
[STAT. MILES]
WEATHER
CLOUDINESS
[FEET AGL]
 
25 FEB - 0000 to
25 FEB - 0500
270 @ 12 KNOTS
GUSTS 22 KNOTS
6+
NIL
15000 FEW
REMARKS
THE FORECAST IS BASED ON AUTOMATIC OBSERVATIONS - THE NEXT FORECAST WILL BE ISSUED AT 1245 UTC ON DAY 25


Your time UTC time
Weather data provided by Environment Canada and NAV CANADA